Mpi Rosinante — 2CPD4 — position and weather

sailwx.info

Track history (hours):
 
Tides and Currents Weather Stations Pressure Air Temp Water Temp Dewpoint Dewpoint Depression Visibility Wind Speed Wind Dir Waves Ship Positions

Mpi Rosinante

Last reported at 2015-Aug-03 21:07 UTC. Time now 2015-Aug-04 07:23 UTC.
Position N 51°14' E 002°56'.

Length 15 m; draft 1.1 m.

Type: Ship. MMSI: 235074636.

Date/timePositionNaut miles runAvg speedWind from/ knotsBaromVisibWave heightAir tempDewpointWater temp
2015-Aug-03 21:07N 51°14' E 002°56'0 0.6
2015-Aug-03 20:33N 51°14' E 002°56'5816.9
2015-Aug-03 17:06N 52°07' E 002°15'2813.9
2015-Aug-03 15:07N 52°32' E 001°56'713.1
2015-Aug-03 14:34N 52°38' E 001°51'1515.2
2015-Aug-03 13:33N 52°50' E 001°35'8 7.3
2015-Aug-03 12:28N 52°55' E 001°25'4 4.0
2015-Aug-03 11:31N 52°58' E 001°21'5516.8
2015-Aug-03 08:16N 53°42' E 000°27'1216.5
2015-Aug-03 07:33N 53°52' E 000°15'1615.8
2015-Aug-03 06:32N 54°05' W 000°01'1717.2
2015-Aug-03 05:33N 54°18' W 000°19'1717.1
2015-Aug-03 04:32N 54°31' W 000°39'22 1.3
2015-Aug-02 12:13N 54°41' W 001°12'0 0.0
2015-Aug-01 13:17N 54°41' W 001°12'0 0.0
2015-Aug-01 11:22N 54°41' W 001°12'0 0.0
2015-Aug-01 10:22N 54°41' W 001°12'0 0.0
2015-Aug-01 09:25N 54°41' W 001°12'0 0.0
2015-Jul-31 14:20N 54°41' W 001°12'1 1.4
2015-Jul-31 13:33N 54°41' W 001°10'1 0.9
2015-Jul-31 12:16N 54°41' W 001°12'0 0.0
2015-Jul-31 11:31N 54°41' W 001°12'0 0.0
2015-Jul-31 09:12N 54°41' W 001°12'0 0.0
2015-Jul-31 08:27N 54°41' W 001°12'  
Track history (hours):
 
Tides and Currents Weather Stations Pressure Air Temp Water Temp Dewpoint Dewpoint Depression Visibility Wind Speed Wind Dir Waves Ship Positions

Mpi Rosinante

Last reported at 2015-Aug-03 21:07 UTC. Time now 2015-Aug-04 07:23 UTC.
Position N 51°14' E 002°56'.

Length 15 m; draft 1.1 m.

Type: Ship. MMSI: 235074636.

Date/timePositionNaut miles runAvg speedWind from/ knotsBaromVisibWave heightAir tempDewpointWater temp
2015-Aug-03 21:07N 51°14' E 002°56'0 0.6
2015-Aug-03 20:33N 51°14' E 002°56'5816.9
2015-Aug-03 17:06N 52°07' E 002°15'2813.9
2015-Aug-03 15:07N 52°32' E 001°56'713.1
2015-Aug-03 14:34N 52°38' E 001°51'1515.2
2015-Aug-03 13:33N 52°50' E 001°35'8 7.3
2015-Aug-03 12:28N 52°55' E 001°25'4 4.0
2015-Aug-03 11:31N 52°58' E 001°21'5516.8
2015-Aug-03 08:16N 53°42' E 000°27'1216.5
2015-Aug-03 07:33N 53°52' E 000°15'1615.8
2015-Aug-03 06:32N 54°05' W 000°01'1717.2
2015-Aug-03 05:33N 54°18' W 000°19'1717.1
2015-Aug-03 04:32N 54°31' W 000°39'22 1.3
2015-Aug-02 12:13N 54°41' W 001°12'0 0.0
2015-Aug-01 13:17N 54°41' W 001°12'0 0.0
2015-Aug-01 11:22N 54°41' W 001°12'0 0.0
2015-Aug-01 10:22N 54°41' W 001°12'0 0.0
2015-Aug-01 09:25N 54°41' W 001°12'0 0.0
2015-Jul-31 14:20N 54°41' W 001°12'1 1.4
2015-Jul-31 13:33N 54°41' W 001°10'1 0.9
2015-Jul-31 12:16N 54°41' W 001°12'0 0.0
2015-Jul-31 11:31N 54°41' W 001°12'0 0.0
2015-Jul-31 09:12N 54°41' W 001°12'0 0.0
2015-Jul-31 08:27N 54°41' W 001°12'  

Dump ship's entire track history